createdAt,value
2022-08-22T00:02:21.548Z,20.90
2022-08-22T00:02:53.246Z,25.30
2022-08-22T00:02:58.681Z,22.10
2022-08-22T00:07:37.115Z,20.90
2022-08-22T00:12:48.041Z,20.80
2022-08-22T00:18:00.487Z,20.80
2022-08-22T00:23:17.865Z,20.80
2022-08-22T00:28:26.288Z,20.70
2022-08-22T00:33:36.339Z,20.70
2022-08-22T00:38:45.218Z,20.60
2022-08-22T00:44:24.331Z,20.60
2022-08-22T00:50:04.252Z,20.60
2022-08-22T00:55:34.911Z,20.60
2022-08-22T01:00:44.996Z,20.50
2022-08-22T01:06:04.360Z,20.50
2022-08-22T01:11:31.474Z,20.50
2022-08-22T01:16:56.363Z,20.50
2022-08-22T01:22:41.874Z,20.40
2022-08-22T01:28:18.304Z,20.40
2022-08-22T01:34:16.505Z,20.40
2022-08-22T01:39:44.704Z,20.30
2022-08-22T01:45:10.765Z,20.30
2022-08-22T01:50:22.029Z,20.20
2022-08-22T01:55:31.924Z,20.20
2022-08-22T02:00:55.624Z,20.10
2022-08-22T02:06:07.358Z,20.00
2022-08-22T02:11:13.914Z,20.00
2022-08-22T02:16:25.364Z,20.00
2022-08-22T02:21:46.019Z,20.00
2022-08-22T02:27:04.322Z,20.10
2022-08-22T02:32:17.503Z,20.00
2022-08-22T02:37:33.933Z,20.10
2022-08-22T02:42:43.245Z,20.10
2022-08-22T02:47:58.040Z,20.00
2022-08-22T02:53:15.506Z,20.00
2022-08-22T02:58:27.642Z,20.00
2022-08-22T03:03:37.308Z,20.00
2022-08-22T03:09:01.115Z,20.00
2022-08-22T03:14:09.148Z,19.90
2022-08-22T03:19:19.446Z,19.90
2022-08-22T03:24:32.882Z,19.90
2022-08-22T03:29:40.392Z,19.80
2022-08-22T03:35:03.577Z,19.80
2022-08-22T03:40:25.769Z,19.70
2022-08-22T03:46:18.740Z,19.70
2022-08-22T03:51:34.010Z,19.70
2022-08-22T03:57:09.711Z,19.60
2022-08-22T04:02:43.287Z,19.50
2022-08-22T04:08:14.430Z,19.50
2022-08-22T04:13:38.567Z,19.40
2022-08-22T04:19:22.264Z,19.30
2022-08-22T04:24:43.830Z,19.20
2022-08-22T04:29:59.801Z,19.10
2022-08-22T04:35:10.190Z,19.10
2022-08-22T04:40:20.197Z,19.00
2022-08-22T04:45:27.565Z,19.00
2022-08-22T04:50:42.583Z,19.00
2022-08-22T04:55:57.720Z,19.00
2022-08-22T05:01:13.771Z,19.00
2022-08-22T05:06:21.649Z,18.90
2022-08-22T05:11:25.789Z,18.90
2022-08-22T05:16:34.666Z,18.90
2022-08-22T05:21:43.776Z,18.90
2022-08-22T05:26:53.387Z,19.00
2022-08-22T05:32:03.236Z,19.00
2022-08-22T05:37:14.259Z,19.00
2022-08-22T05:42:23.700Z,19.00
2022-08-22T05:47:36.335Z,18.90
2022-08-22T05:53:00.771Z,19.00
2022-08-22T05:58:22.018Z,19.00
2022-08-22T06:03:29.506Z,19.00
2022-08-22T06:08:38.835Z,19.10
2022-08-22T06:13:47.267Z,19.10
2022-08-22T06:18:52.797Z,19.10
2022-08-22T06:24:00.053Z,19.20
2022-08-22T06:29:04.435Z,19.30
2022-08-22T06:34:16.785Z,19.30
2022-08-22T06:39:24.408Z,19.50
2022-08-22T06:44:31.812Z,19.50
2022-08-22T06:49:36.993Z,19.60
2022-08-22T06:54:47.269Z,19.70
2022-08-22T06:59:50.928Z,19.70
2022-08-22T07:04:54.212Z,19.80
2022-08-22T07:09:58.957Z,19.90
2022-08-22T07:15:10.856Z,20.00
2022-08-22T07:20:24.032Z,20.10
2022-08-22T07:25:30.173Z,20.20
2022-08-22T07:30:45.922Z,20.40
2022-08-22T07:35:55.191Z,20.50
2022-08-22T07:41:07.264Z,20.60
2022-08-22T07:46:25.437Z,20.80
2022-08-22T07:51:35.859Z,21.00
2022-08-22T07:56:46.375Z,21.20
2022-08-22T08:01:53.929Z,21.40
2022-08-22T08:07:00.492Z,21.60
2022-08-22T08:12:06.942Z,21.90
2022-08-22T08:17:18.654Z,22.10
2022-08-22T08:22:26.421Z,22.40
2022-08-22T08:27:53.266Z,22.80
2022-08-22T08:33:25.050Z,23.10
2022-08-22T08:38:27.380Z,23.30
2022-08-22T08:43:43.680Z,23.60
2022-08-22T08:49:16.817Z,23.90
2022-08-22T08:54:56.185Z,24.10
2022-08-22T09:00:07.003Z,24.40
2022-08-22T09:05:40.513Z,24.60
2022-08-22T09:11:09.900Z,24.80
2022-08-22T09:16:37.070Z,25.10
2022-08-22T09:22:06.429Z,25.30
2022-08-22T09:27:24.473Z,25.60
2022-08-22T09:32:44.120Z,25.70
2022-08-22T09:37:59.542Z,25.80
2022-08-22T09:43:11.018Z,26.00
2022-08-22T09:48:32.071Z,26.10
2022-08-22T09:53:57.981Z,26.30
2022-08-22T09:59:04.368Z,26.50
2022-08-22T10:04:43.938Z,26.60
2022-08-22T10:09:57.713Z,26.70
2022-08-22T10:15:17.557Z,26.80
2022-08-22T10:20:29.316Z,26.90
2022-08-22T10:25:42.387Z,27.00
2022-08-22T10:30:58.033Z,27.20
2022-08-22T10:36:11.749Z,27.30
2022-08-22T10:41:25.952Z,27.40
2022-08-22T10:46:35.808Z,27.40
2022-08-22T10:51:47.669Z,27.50
2022-08-22T10:56:56.726Z,27.60
2022-08-22T11:02:22.303Z,27.80
2022-08-22T11:07:50.092Z,27.90
2022-08-22T11:13:06.688Z,28.00
2022-08-22T11:18:20.523Z,28.10
2022-08-22T11:23:37.349Z,28.10
2022-08-22T11:29:13.142Z,28.00
2022-08-22T11:34:32.229Z,28.00
2022-08-22T11:39:45.267Z,28.00
2022-08-22T11:44:55.516Z,28.00
2022-08-22T11:50:03.821Z,28.00
2022-08-22T11:55:34.503Z,28.10
2022-08-22T12:00:49.428Z,28.10
2022-08-22T12:05:56.731Z,28.00
2022-08-22T12:11:08.372Z,28.00
2022-08-22T12:16:17.670Z,27.90
2022-08-22T12:21:46.386Z,28.00
2022-08-22T12:27:18.319Z,28.00
2022-08-22T12:33:20.782Z,28.00
2022-08-22T12:38:38.078Z,27.90
2022-08-22T12:43:53.395Z,27.90
2022-08-22T12:49:16.445Z,27.90
2022-08-22T12:54:46.708Z,27.90
2022-08-22T12:59:55.158Z,27.90
2022-08-22T13:05:10.946Z,27.90
2022-08-22T13:10:45.849Z,27.90
2022-08-22T13:15:57.944Z,27.90
2022-08-22T13:21:05.146Z,27.90
2022-08-22T13:26:12.401Z,27.90
2022-08-22T13:31:39.113Z,27.90
2022-08-22T13:36:51.576Z,27.90
2022-08-22T13:41:58.283Z,27.90
2022-08-22T13:47:14.767Z,27.90
2022-08-22T13:52:29.658Z,28.00
2022-08-22T13:57:39.000Z,28.00
2022-08-22T14:02:59.918Z,28.00
2022-08-22T14:08:14.339Z,28.10
2022-08-22T14:13:36.688Z,28.10
2022-08-22T14:18:48.534Z,28.00
2022-08-22T14:23:53.884Z,28.10
2022-08-22T14:29:02.223Z,28.20
2022-08-22T14:34:11.856Z,28.20
2022-08-22T14:39:23.664Z,28.20
2022-08-22T14:44:30.428Z,28.20
2022-08-22T14:49:52.310Z,28.20
2022-08-22T14:55:22.359Z,28.30
2022-08-22T15:00:29.438Z,28.30
2022-08-22T15:05:45.127Z,28.30
2022-08-22T15:10:49.480Z,28.40
2022-08-22T15:15:56.015Z,28.30
2022-08-22T15:21:08.759Z,28.30
2022-08-22T15:26:21.203Z,28.20
2022-08-22T15:31:25.253Z,28.10
2022-08-22T15:36:31.213Z,28.00
2022-08-22T15:42:26.097Z,28.00
2022-08-22T15:47:36.329Z,27.90
2022-08-22T16:04:19.534Z,27.50
2022-08-22T16:09:40.662Z,27.50
2022-08-22T16:15:01.554Z,27.40
2022-08-22T16:20:53.180Z,27.40
2022-08-22T16:26:19.848Z,27.30
2022-08-22T16:31:51.791Z,27.30
2022-08-22T16:44:57.433Z,27.30
2022-08-22T16:50:57.211Z,27.30
2022-08-22T16:56:35.528Z,27.30
2022-08-22T17:02:07.039Z,27.30
2022-08-22T17:07:33.643Z,27.40
2022-08-22T17:13:15.155Z,27.50
2022-08-22T17:18:43.769Z,27.40
2022-08-22T17:23:58.142Z,27.50
2022-08-22T17:29:13.948Z,27.40
2022-08-22T17:34:32.278Z,27.40
2022-08-22T17:39:58.375Z,27.40
2022-08-22T17:45:10.872Z,27.10
2022-08-22T17:50:24.203Z,27.10
2022-08-22T17:55:33.457Z,27.00
2022-08-22T18:00:44.924Z,26.90
2022-08-22T18:05:57.977Z,26.90
2022-08-22T18:11:55.345Z,26.80
2022-08-22T18:17:01.188Z,26.80
2022-08-22T18:22:13.180Z,26.70
2022-08-22T18:27:34.248Z,26.70
2022-08-22T18:33:18.788Z,26.50
2022-08-22T18:38:58.420Z,26.40
2022-08-22T18:44:11.451Z,26.30
2022-08-22T18:49:41.971Z,26.10
2022-08-22T18:55:07.428Z,25.90
2022-08-22T19:00:17.597Z,25.70
2022-08-22T19:05:46.252Z,25.60
2022-08-22T19:11:04.324Z,25.40
2022-08-22T19:16:36.713Z,25.20
2022-08-22T19:22:22.545Z,25.00
2022-08-22T19:27:31.999Z,24.80
2022-08-22T19:33:11.611Z,24.70
2022-08-22T19:38:56.533Z,24.60
2022-08-22T19:43:59.978Z,24.40
2022-08-22T19:49:04.385Z,24.30
2022-08-22T19:54:20.418Z,24.10
2022-08-22T19:59:32.443Z,24.00
2022-08-22T20:05:01.538Z,23.80
2022-08-22T20:10:17.441Z,23.70
2022-08-22T20:15:24.651Z,23.60
2022-08-22T20:20:59.726Z,23.50
2022-08-22T20:26:05.556Z,23.40
2022-08-22T20:31:20.090Z,23.30
2022-08-22T20:36:28.735Z,23.20
2022-08-22T20:41:36.806Z,23.00
2022-08-22T20:46:54.911Z,22.90
2022-08-22T20:52:00.559Z,22.80
2022-08-22T20:57:16.095Z,22.70
2022-08-22T21:02:24.338Z,22.60
2022-08-22T21:07:29.959Z,22.40
2022-08-22T21:12:34.519Z,22.40
2022-08-22T21:17:39.590Z,22.20
2022-08-22T21:22:50.939Z,22.10
2022-08-22T21:27:55.536Z,21.90
2022-08-22T21:32:59.191Z,21.90
2022-08-22T21:38:03.165Z,21.80
2022-08-22T21:43:12.340Z,21.60
2022-08-22T21:48:38.714Z,21.50
2022-08-22T21:53:45.538Z,21.40
2022-08-22T21:58:50.081Z,21.30
2022-08-22T22:03:54.875Z,21.10
2022-08-22T22:08:58.430Z,21.00
2022-08-22T22:14:03.185Z,20.90
2022-08-22T22:19:10.154Z,20.80
2022-08-22T22:24:13.912Z,20.70
2022-08-22T22:29:18.648Z,20.60
2022-08-22T22:34:23.723Z,20.40
2022-08-22T22:39:27.074Z,20.20
2022-08-22T22:44:32.025Z,20.20
2022-08-22T22:49:37.998Z,20.20
2022-08-22T22:54:41.280Z,20.20
2022-08-22T22:59:49.847Z,20.20
2022-08-22T23:04:56.444Z,20.20
2022-08-22T23:09:59.717Z,20.20
2022-08-22T23:15:07.080Z,20.20
2022-08-22T23:20:10.868Z,20.20
2022-08-22T23:25:14.432Z,20.10
2022-08-22T23:30:19.127Z,20.10
2022-08-22T23:35:25.121Z,20.10
2022-08-22T23:40:28.338Z,20.00
2022-08-22T23:45:36.953Z,20.00
2022-08-22T23:50:42.048Z,20.00
2022-08-22T23:55:45.225Z,20.00
